createdAt,value
2023-02-19T00:00:17.000Z,0
2023-02-19T00:01:34.000Z,0
2023-02-19T00:02:50.000Z,0
2023-02-19T00:04:06.000Z,0
2023-02-19T00:05:22.202Z,0
2023-02-19T00:06:38.000Z,0
2023-02-19T00:07:54.000Z,0
2023-02-19T00:09:11.075Z,0
2023-02-19T00:10:27.000Z,0
2023-02-19T00:11:43.000Z,0
2023-02-19T00:12:59.000Z,0
2023-02-19T00:14:15.000Z,0
2023-02-19T00:15:32.000Z,0
2023-02-19T00:16:48.768Z,0
2023-02-19T00:18:04.000Z,0
2023-02-19T00:19:21.000Z,0
2023-02-19T00:20:37.000Z,0
2023-02-19T00:21:52.000Z,0
2023-02-19T00:23:09.000Z,0
2023-02-19T00:24:25.000Z,0
2023-02-19T00:25:41.000Z,0
2023-02-19T00:26:58.124Z,0
2023-02-19T00:28:14.000Z,0
2023-02-19T00:29:30.000Z,0
2023-02-19T00:30:46.000Z,0
2023-02-19T00:32:03.000Z,0
2023-02-19T00:33:19.000Z,0
2023-02-19T00:34:35.000Z,0
2023-02-19T00:35:51.000Z,0
2023-02-19T00:37:08.000Z,0
2023-02-19T00:38:23.000Z,0
2023-02-19T00:39:39.977Z,0
2023-02-19T00:40:56.000Z,0
2023-02-19T00:42:12.000Z,0
2023-02-19T00:43:28.862Z,0
2023-02-19T00:44:44.000Z,0
2023-02-19T00:46:01.000Z,0
2023-02-19T00:47:17.000Z,0
2023-02-19T00:48:33.000Z,0
2023-02-19T00:49:50.000Z,0
2023-02-19T00:51:06.000Z,0
2023-02-19T00:52:22.000Z,0
2023-02-19T00:53:38.000Z,0
2023-02-19T00:54:55.432Z,0
2023-02-19T00:56:10.754Z,0
2023-02-19T00:57:26.000Z,0
2023-02-19T00:58:43.000Z,0
2023-02-19T00:59:59.000Z,0
2023-02-19T01:01:15.000Z,0
2023-02-19T01:02:31.000Z,0
2023-02-19T01:03:48.000Z,0
2023-02-19T01:05:04.000Z,0
2023-02-19T01:06:20.000Z,0
2023-02-19T01:07:37.000Z,0
2023-02-19T01:08:53.000Z,0
2023-02-19T01:10:09.000Z,0
2023-02-19T01:11:25.000Z,0
2023-02-19T01:12:41.000Z,0
2023-02-19T01:13:57.000Z,0
2023-02-19T01:15:13.000Z,0
2023-02-19T01:16:30.000Z,0
2023-02-19T01:17:46.000Z,0
2023-02-19T01:19:02.000Z,0
2023-02-19T01:20:18.000Z,0
2023-02-19T01:21:35.000Z,0
2023-02-19T01:22:51.000Z,0
2023-02-19T01:24:07.000Z,0
2023-02-19T01:25:24.000Z,0
2023-02-19T01:26:40.000Z,0
2023-02-19T01:27:56.000Z,0
2023-02-19T01:29:11.000Z,0
2023-02-19T01:30:28.521Z,0
2023-02-19T01:31:44.000Z,0
2023-02-19T01:33:00.000Z,0
2023-02-19T01:34:17.411Z,0
2023-02-19T01:35:33.000Z,0
2023-02-19T01:36:49.957Z,0
2023-02-19T01:38:06.000Z,0
2023-02-19T01:39:22.000Z,0
2023-02-19T01:40:38.000Z,0
2023-02-19T01:41:54.000Z,0
2023-02-19T01:43:11.000Z,0
2023-02-19T01:44:27.000Z,0
2023-02-19T01:45:43.019Z,0
2023-02-19T01:46:59.289Z,0
2023-02-19T01:48:15.000Z,0
2023-02-19T01:49:31.000Z,0
2023-02-19T01:50:48.135Z,0
2023-02-19T01:52:04.000Z,0
2023-02-19T01:53:20.000Z,0
2023-02-19T01:54:36.000Z,0
2023-02-19T01:55:53.000Z,0
2023-02-19T01:57:09.000Z,0
2023-02-19T01:58:25.000Z,0
2023-02-19T01:59:41.000Z,0
2023-02-19T02:00:58.000Z,0
2023-02-19T02:02:13.000Z,0
2023-02-19T02:03:29.000Z,0
2023-02-19T02:04:46.000Z,0
2023-02-19T02:07:18.000Z,0
2023-02-19T02:08:34.000Z,0
2023-02-19T02:09:51.465Z,0
2023-02-19T02:11:07.000Z,0
2023-02-19T02:12:24.054Z,0
2023-02-19T02:13:40.333Z,0
2023-02-19T02:14:56.000Z,0
2023-02-19T02:16:12.000Z,0
2023-02-19T02:17:28.000Z,0
2023-02-19T02:18:44.000Z,0
2023-02-19T02:20:00.000Z,0
2023-02-19T02:21:16.000Z,0
2023-02-19T02:22:33.000Z,0
2023-02-19T02:23:49.000Z,0
2023-02-19T02:25:05.000Z,0
2023-02-19T02:26:21.000Z,0
2023-02-19T02:27:38.000Z,0
2023-02-19T02:28:54.000Z,0
2023-02-19T02:30:10.000Z,0
2023-02-19T02:31:27.376Z,0
2023-02-19T02:32:43.000Z,0
2023-02-19T02:33:59.000Z,0
2023-02-19T02:35:15.000Z,0
2023-02-19T02:36:31.543Z,0
2023-02-19T02:37:47.831Z,0
2023-02-19T02:39:03.000Z,0
2023-02-19T02:40:20.000Z,0
2023-02-19T02:41:35.000Z,0
2023-02-19T02:42:51.000Z,0
2023-02-19T02:44:08.000Z,0
2023-02-19T02:45:24.000Z,0
2023-02-19T02:46:40.000Z,0
2023-02-19T02:47:56.000Z,0
2023-02-19T02:49:13.000Z,0
2023-02-19T02:50:29.000Z,0
2023-02-19T02:51:45.000Z,0
2023-02-19T02:53:02.000Z,0
2023-02-19T02:54:18.000Z,0
2023-02-19T02:55:34.000Z,0
2023-02-19T02:56:50.000Z,0
2023-02-19T02:58:06.000Z,0
2023-02-19T02:59:22.000Z,0
2023-02-19T03:00:38.000Z,0
2023-02-19T03:01:55.000Z,0
2023-02-19T03:03:11.000Z,0
2023-02-19T03:04:27.000Z,0
2023-02-19T03:05:43.000Z,0
2023-02-19T03:07:00.000Z,0
2023-02-19T03:08:16.000Z,0
2023-02-19T03:09:32.000Z,0
2023-02-19T03:10:49.000Z,0
2023-02-19T03:12:05.000Z,0
2023-02-19T03:13:21.000Z,0
2023-02-19T03:14:36.000Z,0
2023-02-19T03:15:53.494Z,0
2023-02-19T03:17:09.000Z,0
2023-02-19T03:18:25.000Z,0
2023-02-19T03:19:42.000Z,0
2023-02-19T03:20:57.000Z,0
2023-02-19T03:22:12.000Z,0
2023-02-19T03:23:29.000Z,0
2023-02-19T03:24:45.000Z,0
2023-02-19T03:26:00.000Z,0
2023-02-19T03:27:15.000Z,0
2023-02-19T03:28:32.000Z,0
2023-02-19T03:29:48.000Z,0
2023-02-19T03:31:04.000Z,0
2023-02-19T03:32:21.000Z,0
2023-02-19T03:33:37.000Z,0
2023-02-19T03:34:53.900Z,0
2023-02-19T03:36:09.000Z,0
2023-02-19T03:37:26.000Z,0
2023-02-19T03:38:42.000Z,0
2023-02-19T03:39:58.000Z,0
2023-02-19T03:41:15.000Z,0
2023-02-19T03:42:31.000Z,0
2023-02-19T03:43:46.000Z,0
2023-02-19T03:45:02.000Z,0
2023-02-19T03:46:19.000Z,0
2023-02-19T03:47:35.000Z,0
2023-02-19T03:48:51.000Z,0
2023-02-19T03:50:08.000Z,0
2023-02-19T03:51:24.000Z,0
2023-02-19T03:52:40.000Z,0
2023-02-19T03:53:57.237Z,0
2023-02-19T03:55:13.000Z,0
2023-02-19T03:56:29.000Z,0
2023-02-19T03:57:45.000Z,0
2023-02-19T03:59:02.000Z,0
2023-02-19T04:00:17.000Z,0
2023-02-19T04:01:33.000Z,0
2023-02-19T04:02:49.000Z,0
2023-02-19T04:04:06.000Z,0
2023-02-19T04:05:22.000Z,0
2023-02-19T04:06:38.000Z,0
2023-02-19T04:07:55.000Z,0
2023-02-19T04:09:11.678Z,0
2023-02-19T04:10:27.000Z,0
2023-02-19T04:11:44.000Z,0
2023-02-19T04:13:00.000Z,0
2023-02-19T04:14:16.000Z,0
2023-02-19T04:15:32.000Z,0
2023-02-19T04:16:48.000Z,0
2023-02-19T04:18:04.000Z,0
2023-02-19T04:19:21.130Z,0
2023-02-19T04:20:37.000Z,0
2023-02-19T04:21:53.000Z,0
2023-02-19T04:23:09.000Z,0
2023-02-19T04:24:25.000Z,0
2023-02-19T04:25:42.000Z,0
2023-02-19T04:26:58.000Z,0
2023-02-19T04:28:14.000Z,0
2023-02-19T04:29:31.000Z,0
2023-02-19T04:30:47.000Z,0
2023-02-19T04:32:03.857Z,0
2023-02-19T04:33:18.000Z,0
2023-02-19T04:34:35.000Z,0
2023-02-19T04:35:51.000Z,0
2023-02-19T04:37:07.000Z,0
2023-02-19T04:38:24.000Z,0
2023-02-19T04:39:40.000Z,0
2023-02-19T04:40:56.000Z,0
2023-02-19T04:42:12.000Z,0
2023-02-19T04:43:29.000Z,0
2023-02-19T04:44:45.763Z,0
2023-02-19T04:46:01.000Z,0
2023-02-19T04:47:18.000Z,0
2023-02-19T04:48:34.000Z,0
2023-02-19T04:49:49.000Z,0
2023-02-19T04:51:05.000Z,0
2023-02-19T04:52:22.000Z,0
2023-02-19T04:53:38.000Z,0
2023-02-19T04:54:54.000Z,0
2023-02-19T04:56:11.000Z,0
2023-02-19T04:57:27.000Z,0
2023-02-19T04:58:43.000Z,0
2023-02-19T04:59:59.000Z,0
2023-02-19T05:01:16.000Z,0
2023-02-19T05:02:32.000Z,0
2023-02-19T05:03:48.000Z,0
2023-02-19T05:05:05.000Z,0
2023-02-19T05:06:20.000Z,0
2023-02-19T05:07:36.000Z,0
2023-02-19T05:08:53.000Z,0
2023-02-19T05:10:09.550Z,0
2023-02-19T05:11:25.000Z,0
2023-02-19T05:12:42.112Z,0
2023-02-19T05:13:58.000Z,0
2023-02-19T05:15:14.000Z,0
2023-02-19T05:16:30.000Z,0
2023-02-19T05:17:47.000Z,0
2023-02-19T05:19:03.000Z,0
2023-02-19T05:20:19.000Z,0
2023-02-19T05:21:35.000Z,0
2023-02-19T05:22:51.446Z,0
2023-02-19T05:24:07.000Z,0
2023-02-19T05:25:23.000Z,0
2023-02-19T05:26:40.000Z,0
2023-02-19T05:27:56.000Z,0
2023-02-19T05:29:12.000Z,0
2023-02-19T05:30:28.000Z,0
2023-02-19T05:31:45.000Z,0
2023-02-19T05:33:01.000Z,0
2023-02-19T05:34:17.000Z,0
2023-02-19T05:35:34.319Z,0
2023-02-19T05:36:50.000Z,0
2023-02-19T05:38:06.000Z,0
2023-02-19T05:39:21.000Z,0
2023-02-19T05:40:38.000Z,0
2023-02-19T05:41:54.000Z,0
2023-02-19T05:43:10.000Z,0
2023-02-19T05:44:27.000Z,0
2023-02-19T05:45:43.000Z,0
2023-02-19T05:46:59.000Z,0
2023-02-19T05:48:15.000Z,0
2023-02-19T05:49:32.483Z,0
2023-02-19T05:50:48.000Z,0
2023-02-19T05:52:04.000Z,0
2023-02-19T05:53:21.000Z,0
2023-02-19T05:54:37.000Z,0
2023-02-19T05:55:52.000Z,0
2023-02-19T05:57:08.000Z,0
2023-02-19T05:58:25.000Z,0
2023-02-19T05:59:41.000Z,0
2023-02-19T06:00:58.094Z,0
2023-02-19T06:02:14.000Z,0
2023-02-19T06:03:30.000Z,0
2023-02-19T06:04:46.000Z,0
2023-02-19T06:06:02.000Z,0
2023-02-19T06:07:19.615Z,0
2023-02-19T06:08:35.000Z,0
2023-02-19T06:09:51.000Z,0
2023-02-19T06:11:08.000Z,0
2023-02-19T06:12:23.000Z,0
2023-02-19T06:13:39.000Z,0
2023-02-19T06:14:56.000Z,0
2023-02-19T06:16:12.000Z,1
2023-02-19T06:17:28.806Z,0
2023-02-19T06:18:44.000Z,0
2023-02-19T06:20:01.324Z,1
2023-02-19T06:21:17.000Z,1
2023-02-19T06:22:33.000Z,0
2023-02-19T06:23:49.000Z,2
2023-02-19T06:25:06.000Z,2
2023-02-19T06:26:22.543Z,2
2023-02-19T06:27:38.791Z,1
2023-02-19T06:28:54.010Z,2
2023-02-19T06:30:10.000Z,4
2023-02-19T06:31:26.000Z,2
2023-02-19T06:32:42.000Z,2
2023-02-19T06:33:58.000Z,2
2023-02-19T06:35:14.000Z,2
2023-02-19T06:36:31.000Z,7
2023-02-19T06:37:47.000Z,4
2023-02-19T06:39:03.000Z,13
2023-02-19T06:40:19.000Z,19
2023-02-19T06:41:36.000Z,25
2023-02-19T06:42:52.000Z,21
2023-02-19T06:44:08.000Z,29
2023-02-19T06:45:23.000Z,29
2023-02-19T06:46:40.000Z,37
2023-02-19T06:47:56.000Z,30
2023-02-19T06:49:12.000Z,48
2023-02-19T06:50:28.000Z,71
2023-02-19T06:51:45.262Z,104
2023-02-19T06:53:01.000Z,117
2023-02-19T06:54:17.000Z,109
2023-02-19T06:55:33.000Z,89
2023-02-19T06:56:48.000Z,76
2023-02-19T06:58:05.000Z,113
2023-02-19T06:59:21.000Z,121
2023-02-19T07:00:37.914Z,135
2023-02-19T07:01:54.120Z,156
2023-02-19T07:04:26.000Z,149
2023-02-19T07:05:42.000Z,189
2023-02-19T07:06:58.000Z,163
2023-02-19T07:08:15.000Z,168
2023-02-19T07:09:31.000Z,139
2023-02-19T07:10:47.000Z,155
2023-02-19T07:12:03.000Z,207
2023-02-19T07:13:19.000Z,200
2023-02-19T07:14:35.000Z,216
2023-02-19T07:15:51.720Z,227
2023-02-19T07:17:07.000Z,245
2023-02-19T07:18:24.176Z,221
2023-02-19T07:19:40.000Z,212
2023-02-19T07:20:56.655Z,207
2023-02-19T07:22:12.000Z,177
2023-02-19T07:23:28.000Z,197
2023-02-19T07:24:45.000Z,240
2023-02-19T07:26:01.000Z,210
2023-02-19T07:27:17.000Z,217
2023-02-19T07:28:33.000Z,211
2023-02-19T07:29:49.000Z,177
2023-02-19T07:31:05.000Z,139
2023-02-19T07:32:21.000Z,119
2023-02-19T07:33:37.996Z,110
2023-02-19T07:34:53.000Z,108
2023-02-19T07:36:10.000Z,89
2023-02-19T07:37:26.000Z,109
2023-02-19T07:39:58.000Z,111
2023-02-19T07:41:15.000Z,94
2023-02-19T07:42:31.650Z,110
2023-02-19T07:43:47.000Z,108
2023-02-19T07:45:03.000Z,108
2023-02-19T07:46:19.000Z,103
2023-02-19T07:47:35.000Z,87
2023-02-19T07:48:51.000Z,110
2023-02-19T07:50:07.000Z,103
2023-02-19T07:51:24.000Z,82
2023-02-19T07:52:40.000Z,124
2023-02-19T07:53:56.000Z,140
2023-02-19T07:55:12.999Z,169
2023-02-19T07:56:28.000Z,180
2023-02-19T07:57:45.000Z,186
2023-02-19T07:59:01.000Z,188
2023-02-19T08:00:17.000Z,299
2023-02-19T08:01:34.160Z,278
2023-02-19T08:02:49.000Z,374
2023-02-19T08:04:05.000Z,349
2023-02-19T08:05:21.000Z,304
2023-02-19T08:06:37.000Z,117
2023-02-19T08:07:54.356Z,170
2023-02-19T08:09:10.000Z,372
2023-02-19T08:10:26.000Z,386
2023-02-19T08:11:43.058Z,280
2023-02-19T08:12:59.000Z,590
2023-02-19T08:14:15.000Z,679
2023-02-19T08:15:31.000Z,650
2023-02-19T08:16:47.000Z,463
2023-02-19T08:18:04.200Z,487
2023-02-19T08:19:19.000Z,458
2023-02-19T08:20:35.689Z,480
2023-02-19T08:21:51.000Z,644
2023-02-19T08:23:07.000Z,1001
2023-02-19T08:24:24.000Z,1261
2023-02-19T08:25:40.000Z,1371
2023-02-19T08:26:56.000Z,990
2023-02-19T08:28:12.000Z,1166
2023-02-19T08:29:29.327Z,1280
2023-02-19T08:30:45.000Z,1177
2023-02-19T08:32:01.000Z,1956
2023-02-19T08:33:17.000Z,1779
2023-02-19T08:34:34.000Z,1658
2023-02-19T08:35:49.000Z,1813
2023-02-19T08:37:05.000Z,1678
2023-02-19T08:38:20.000Z,1210
2023-02-19T08:39:36.000Z,985
2023-02-19T08:40:52.000Z,897
2023-02-19T08:42:08.000Z,791
2023-02-19T08:43:24.000Z,734
2023-02-19T08:44:40.000Z,778
2023-02-19T08:45:57.000Z,919
2023-02-19T08:47:13.660Z,971
2023-02-19T08:48:29.000Z,1560
2023-02-19T08:49:45.000Z,1191
2023-02-19T08:51:02.000Z,1016
2023-02-19T08:52:18.000Z,1022
2023-02-19T08:53:34.000Z,1029
2023-02-19T08:54:50.000Z,770
2023-02-19T08:56:06.000Z,364
2023-02-19T08:57:22.000Z,351
2023-02-19T08:58:38.000Z,978
2023-02-19T08:59:55.020Z,831
2023-02-19T09:01:10.000Z,611
2023-02-19T09:02:27.481Z,707
2023-02-19T09:03:42.000Z,790
2023-02-19T09:04:57.000Z,880
2023-02-19T09:06:13.000Z,1005
2023-02-19T09:07:30.000Z,753
2023-02-19T09:08:46.000Z,467
2023-02-19T09:10:02.000Z,727
2023-02-19T09:11:18.000Z,736
2023-02-19T09:12:35.000Z,801
2023-02-19T09:13:51.000Z,703
2023-02-19T09:15:07.000Z,778
2023-02-19T09:16:23.000Z,928
2023-02-19T09:17:40.000Z,985
2023-02-19T09:18:56.000Z,982
2023-02-19T09:20:12.000Z,992
2023-02-19T09:21:27.000Z,1051
2023-02-19T09:22:44.000Z,1053
2023-02-19T09:24:00.000Z,1311
2023-02-19T09:25:16.000Z,1506
2023-02-19T09:26:32.000Z,1479
2023-02-19T09:27:48.000Z,1516
2023-02-19T09:29:05.000Z,1525
2023-02-19T09:30:21.000Z,1432
2023-02-19T09:31:37.000Z,1381
2023-02-19T09:32:53.000Z,1298
2023-02-19T09:34:10.000Z,1517
2023-02-19T09:35:26.000Z,1619
2023-02-19T09:36:42.000Z,1336
2023-02-19T09:37:57.000Z,1291
2023-02-19T09:39:14.000Z,1767
2023-02-19T09:40:30.000Z,2448
2023-02-19T09:41:46.000Z,1919
2023-02-19T09:43:02.000Z,1385
2023-02-19T09:44:19.000Z,1287
2023-02-19T09:45:35.000Z,1527
2023-02-19T09:46:51.000Z,2417
2023-02-19T09:48:07.000Z,3060
2023-02-19T09:49:24.172Z,3484
2023-02-19T09:50:40.000Z,3978
2023-02-19T09:51:56.000Z,3751
2023-02-19T09:53:12.000Z,3406
2023-02-19T09:54:27.000Z,4838
2023-02-19T09:55:44.000Z,4522
2023-02-19T09:57:00.000Z,3563
2023-02-19T09:58:16.000Z,3592
2023-02-19T09:59:32.000Z,1456
2023-02-19T10:00:49.000Z,6806
2023-02-19T10:02:05.000Z,5983
2023-02-19T10:03:21.000Z,5085
2023-02-19T10:04:37.000Z,8733
2023-02-19T10:05:53.000Z,10201
2023-02-19T10:07:10.000Z,7664
2023-02-19T10:08:26.000Z,6043
2023-02-19T10:09:42.000Z,5276
2023-02-19T10:10:57.000Z,3516
2023-02-19T10:12:14.000Z,3905
2023-02-19T10:13:30.000Z,2678
2023-02-19T10:14:46.000Z,2653
2023-02-19T10:16:02.000Z,2860
2023-02-19T10:17:19.000Z,3340
2023-02-19T10:18:35.000Z,2611
2023-02-19T10:19:51.000Z,1771
2023-02-19T10:21:07.000Z,2001
2023-02-19T10:22:24.000Z,2181
2023-02-19T10:23:40.000Z,2201
2023-02-19T10:24:56.000Z,1991
2023-02-19T10:26:12.000Z,1445
2023-02-19T10:27:27.000Z,1278
2023-02-19T10:28:44.000Z,1103
2023-02-19T10:30:00.000Z,1259
2023-02-19T10:31:16.000Z,1218
2023-02-19T10:32:32.000Z,1444
2023-02-19T10:33:49.000Z,1817
2023-02-19T10:35:05.000Z,1298
2023-02-19T10:36:21.000Z,1114
2023-02-19T10:37:37.000Z,794
2023-02-19T10:38:54.000Z,944
2023-02-19T10:40:10.585Z,1784
2023-02-19T10:41:26.000Z,2358
2023-02-19T10:42:42.000Z,1235
2023-02-19T10:43:58.000Z,422
2023-02-19T10:45:14.000Z,719
2023-02-19T10:46:30.000Z,1300
2023-02-19T10:47:46.000Z,1482
2023-02-19T10:49:02.000Z,1599
2023-02-19T10:50:19.000Z,1487
2023-02-19T10:51:35.000Z,1359
2023-02-19T10:52:51.000Z,1370
2023-02-19T10:54:07.000Z,2176
2023-02-19T10:55:23.000Z,2421
2023-02-19T10:56:38.000Z,2357
2023-02-19T10:57:53.000Z,1758
2023-02-19T10:59:09.182Z,1793
2023-02-19T11:00:25.000Z,809
2023-02-19T11:01:41.000Z,2906
2023-02-19T11:02:57.000Z,766
2023-02-19T11:04:13.000Z,2834
2023-02-19T11:05:30.000Z,4931
2023-02-19T11:06:46.000Z,4141
2023-02-19T11:08:02.000Z,3564
2023-02-19T11:09:18.000Z,4014
2023-02-19T11:10:35.000Z,2365
2023-02-19T11:11:50.000Z,1568
2023-02-19T11:13:06.000Z,847
2023-02-19T11:14:22.000Z,2564
2023-02-19T11:15:38.000Z,5707
2023-02-19T11:16:55.000Z,3010
2023-02-19T11:18:11.714Z,804
2023-02-19T11:19:27.000Z,3921
2023-02-19T11:20:43.000Z,5552
2023-02-19T11:22:00.000Z,3778
2023-02-19T11:23:16.000Z,3084
2023-02-19T11:24:32.000Z,2641
2023-02-19T11:25:48.000Z,2406
2023-02-19T11:27:05.000Z,3532
2023-02-19T11:28:20.000Z,2554
2023-02-19T11:29:36.810Z,2004
2023-02-19T11:30:53.060Z,2650
2023-02-19T11:32:09.000Z,2456
2023-02-19T11:33:25.000Z,3093
2023-02-19T11:34:41.000Z,3704
2023-02-19T11:35:57.973Z,2844
2023-02-19T11:37:13.000Z,1753
2023-02-19T11:38:30.000Z,2270
2023-02-19T11:39:46.000Z,1742
2023-02-19T11:41:02.000Z,1836
2023-02-19T11:42:18.000Z,1916
2023-02-19T11:43:35.390Z,2151
2023-02-19T11:44:51.000Z,2877
2023-02-19T11:46:06.882Z,2775
2023-02-19T11:47:22.000Z,2541
2023-02-19T11:48:39.000Z,2167
2023-02-19T11:49:55.000Z,2273
2023-02-19T11:51:11.000Z,3279
2023-02-19T11:52:27.000Z,3419
2023-02-19T11:53:44.000Z,3529
2023-02-19T11:55:00.000Z,3585
2023-02-19T11:56:16.742Z,4085
2023-02-19T11:57:32.959Z,3936
2023-02-19T11:58:48.000Z,4034
2023-02-19T12:00:05.000Z,3602
2023-02-19T12:01:21.000Z,4562
2023-02-19T12:02:36.000Z,4395
2023-02-19T12:03:52.000Z,4167
2023-02-19T12:05:09.000Z,8377
2023-02-19T12:06:25.609Z,6607
2023-02-19T12:07:41.832Z,4577
2023-02-19T12:08:57.000Z,3743
2023-02-19T12:10:14.327Z,3125
2023-02-19T12:11:30.000Z,2686
2023-02-19T12:12:46.000Z,2492
2023-02-19T12:14:02.000Z,2555
2023-02-19T12:15:19.000Z,2770
2023-02-19T12:16:35.000Z,2921
2023-02-19T12:17:51.000Z,2519
2023-02-19T12:19:06.000Z,2671
2023-02-19T12:20:22.000Z,4325
2023-02-19T12:21:39.000Z,4042
2023-02-19T12:22:55.000Z,3422
2023-02-19T12:24:11.000Z,3225
2023-02-19T12:25:27.000Z,2821
2023-02-19T12:26:44.000Z,2412
2023-02-19T12:28:00.000Z,2411
2023-02-19T12:29:16.000Z,2490
2023-02-19T12:30:32.000Z,2316
2023-02-19T12:31:49.000Z,2288
2023-02-19T12:33:05.000Z,2355
2023-02-19T12:34:21.000Z,2347
2023-02-19T12:35:36.000Z,2296
2023-02-19T12:36:53.000Z,2362
2023-02-19T12:38:09.497Z,2198
2023-02-19T12:39:25.000Z,1811
2023-02-19T12:40:41.000Z,1986
2023-02-19T12:41:57.000Z,2306
2023-02-19T12:43:14.000Z,1977
2023-02-19T12:44:30.400Z,1601
2023-02-19T12:45:46.000Z,1445
2023-02-19T12:47:03.117Z,1465
2023-02-19T12:48:19.000Z,1649
2023-02-19T12:49:35.000Z,1904
2023-02-19T12:50:51.000Z,2033
2023-02-19T12:52:06.000Z,1797
2023-02-19T12:53:23.000Z,1814
2023-02-19T12:54:39.000Z,1953
2023-02-19T12:55:55.000Z,1828
2023-02-19T12:57:11.000Z,1682
2023-02-19T12:58:27.000Z,1351
2023-02-19T13:01:00.710Z,1450
2023-02-19T13:02:16.000Z,1437
2023-02-19T13:03:32.000Z,1358
2023-02-19T13:04:49.000Z,1506
2023-02-19T13:06:05.000Z,1641
2023-02-19T13:07:21.000Z,1523
2023-02-19T13:08:36.000Z,2198
2023-02-19T13:09:53.000Z,2287
2023-02-19T13:11:09.000Z,1995
2023-02-19T13:12:25.822Z,1635
2023-02-19T13:13:42.031Z,1363
2023-02-19T13:14:58.000Z,1289
2023-02-19T13:16:14.000Z,1347
2023-02-19T13:17:30.000Z,1428
2023-02-19T13:18:46.000Z,1352
2023-02-19T13:20:02.000Z,1371
2023-02-19T13:21:19.000Z,1488
2023-02-19T13:22:35.000Z,1496
2023-02-19T13:23:51.000Z,1317
2023-02-19T13:25:07.154Z,1279
2023-02-19T13:26:23.000Z,1359
2023-02-19T13:27:39.000Z,1618
2023-02-19T13:28:55.000Z,1887
2023-02-19T13:30:11.000Z,1970
2023-02-19T13:31:28.000Z,1937
2023-02-19T13:32:44.000Z,2082
2023-02-19T13:34:00.000Z,2121
2023-02-19T13:35:16.000Z,2109
2023-02-19T13:36:33.000Z,2047
2023-02-19T13:37:49.492Z,1801
2023-02-19T13:39:05.000Z,1697
2023-02-19T13:40:21.000Z,1677
2023-02-19T13:41:36.000Z,1582
2023-02-19T13:42:53.000Z,1501
2023-02-19T13:44:09.000Z,1574
2023-02-19T13:45:24.000Z,1564
2023-02-19T13:46:40.191Z,1574
2023-02-19T13:47:56.000Z,1517
2023-02-19T13:49:12.000Z,1583
2023-02-19T13:50:27.000Z,1612
2023-02-19T13:51:43.180Z,1665
2023-02-19T13:52:59.000Z,1646
2023-02-19T13:54:15.000Z,1510
2023-02-19T13:55:31.000Z,1551
2023-02-19T13:56:47.000Z,1615
2023-02-19T13:58:04.000Z,1565
2023-02-19T13:59:20.000Z,1640
2023-02-19T14:00:36.000Z,1666
2023-02-19T14:01:52.000Z,1599
2023-02-19T14:03:09.000Z,1601
2023-02-19T14:04:25.000Z,1822
2023-02-19T14:05:41.000Z,1699
2023-02-19T14:06:57.961Z,1560
2023-02-19T14:08:12.000Z,1436
2023-02-19T14:09:29.000Z,1301
2023-02-19T14:10:45.000Z,1226
2023-02-19T14:12:01.000Z,1207
2023-02-19T14:13:17.000Z,1130
2023-02-19T14:14:34.000Z,1005
2023-02-19T14:15:50.000Z,916
2023-02-19T14:17:05.000Z,821
2023-02-19T14:18:20.000Z,725
2023-02-19T14:19:37.000Z,758
2023-02-19T14:20:52.000Z,734
2023-02-19T14:22:07.000Z,719
2023-02-19T14:23:23.000Z,724
2023-02-19T14:24:40.000Z,703
2023-02-19T14:25:56.000Z,681
2023-02-19T14:27:12.000Z,616
2023-02-19T14:28:28.000Z,556
2023-02-19T14:29:45.000Z,551
2023-02-19T14:31:01.000Z,580
2023-02-19T14:32:17.000Z,565
2023-02-19T14:33:33.000Z,547
2023-02-19T14:34:49.000Z,570
2023-02-19T14:36:06.000Z,559
2023-02-19T14:37:22.000Z,488
2023-02-19T14:38:37.000Z,477
2023-02-19T14:39:53.000Z,427
2023-02-19T14:41:10.412Z,364
2023-02-19T14:42:26.000Z,388
2023-02-19T14:43:42.000Z,398
2023-02-19T14:44:58.000Z,396
2023-02-19T14:46:15.000Z,377
2023-02-19T14:47:31.000Z,413
2023-02-19T14:48:47.000Z,388
2023-02-19T14:50:04.013Z,376
2023-02-19T14:51:20.000Z,431
2023-02-19T14:52:36.000Z,482
2023-02-19T14:53:52.721Z,489
2023-02-19T14:55:07.000Z,476
2023-02-19T14:56:23.000Z,460
2023-02-19T14:57:40.000Z,486
2023-02-19T14:58:56.667Z,481
2023-02-19T15:00:12.000Z,474
2023-02-19T15:01:29.154Z,447
2023-02-19T15:02:45.000Z,382
2023-02-19T15:04:01.000Z,361
2023-02-19T15:05:17.853Z,362
2023-02-19T15:06:34.091Z,353
2023-02-19T15:07:50.000Z,339
2023-02-19T15:09:06.000Z,341
2023-02-19T15:10:22.000Z,361
2023-02-19T15:11:37.000Z,331
2023-02-19T15:12:54.000Z,330
2023-02-19T15:14:10.000Z,357
2023-02-19T15:15:26.000Z,370
2023-02-19T15:16:42.000Z,413
2023-02-19T15:17:58.000Z,417
2023-02-19T15:19:15.434Z,447
2023-02-19T15:20:31.000Z,438
2023-02-19T15:21:47.000Z,407
2023-02-19T15:23:03.000Z,437
2023-02-19T15:24:20.000Z,489
2023-02-19T15:25:36.840Z,444
2023-02-19T15:26:51.000Z,478
2023-02-19T15:28:07.000Z,479
2023-02-19T15:29:24.000Z,485
2023-02-19T15:30:40.000Z,496
2023-02-19T15:33:12.000Z,558
2023-02-19T15:34:29.000Z,486
2023-02-19T15:35:45.486Z,452
2023-02-19T15:37:00.758Z,418
2023-02-19T15:38:15.000Z,383
2023-02-19T15:39:31.000Z,348
2023-02-19T15:40:46.000Z,352
2023-02-19T15:42:02.000Z,351
2023-02-19T15:43:18.000Z,368
2023-02-19T15:44:34.000Z,340
2023-02-19T15:45:51.000Z,310
2023-02-19T15:47:07.000Z,272
2023-02-19T15:48:23.000Z,299
2023-02-19T15:49:39.000Z,317
2023-02-19T15:50:56.000Z,308
2023-02-19T15:52:12.000Z,256
2023-02-19T15:53:28.000Z,296
2023-02-19T15:54:44.000Z,300
2023-02-19T15:56:01.000Z,287
2023-02-19T15:57:16.000Z,274
2023-02-19T15:58:32.791Z,308
2023-02-19T15:59:48.000Z,318
2023-02-19T16:01:04.000Z,313
2023-02-19T16:02:21.000Z,305
2023-02-19T16:03:37.000Z,286
2023-02-19T16:04:53.000Z,254
2023-02-19T16:06:09.000Z,207
2023-02-19T16:07:25.000Z,180
2023-02-19T16:08:40.000Z,174
2023-02-19T16:09:55.000Z,162
2023-02-19T16:11:10.000Z,151
2023-02-19T16:12:27.000Z,139
2023-02-19T16:13:43.000Z,136
2023-02-19T16:14:59.000Z,125
2023-02-19T16:16:15.000Z,116
2023-02-19T16:17:32.000Z,102
2023-02-19T16:18:48.000Z,96
2023-02-19T16:20:04.000Z,92
2023-02-19T16:21:20.000Z,105
2023-02-19T16:22:37.000Z,115
2023-02-19T16:23:53.000Z,109
2023-02-19T16:25:09.000Z,95
2023-02-19T16:26:25.000Z,92
2023-02-19T16:27:41.000Z,97
2023-02-19T16:28:57.000Z,90
2023-02-19T16:30:13.000Z,78
2023-02-19T16:31:29.000Z,71
2023-02-19T16:32:45.000Z,72
2023-02-19T16:34:02.404Z,68
2023-02-19T16:35:18.000Z,61
2023-02-19T16:36:33.000Z,58
2023-02-19T16:37:48.000Z,64
2023-02-19T16:39:05.388Z,59
2023-02-19T16:40:20.000Z,51
2023-02-19T16:41:35.000Z,43
2023-02-19T16:42:51.000Z,40
2023-02-19T16:44:08.000Z,35
2023-02-19T16:45:24.000Z,31
2023-02-19T16:46:40.000Z,24
2023-02-19T16:47:56.000Z,20
2023-02-19T16:49:13.000Z,17
2023-02-19T16:50:29.000Z,17
2023-02-19T16:51:45.000Z,15
2023-02-19T16:53:01.000Z,14
2023-02-19T16:54:17.000Z,13
2023-02-19T16:55:34.000Z,13
2023-02-19T16:56:50.000Z,11
2023-02-19T16:58:05.000Z,9
2023-02-19T16:59:21.000Z,7
2023-02-19T17:00:38.000Z,4
2023-02-19T17:01:54.000Z,10
2023-02-19T17:03:10.000Z,7
2023-02-19T17:04:26.000Z,5
2023-02-19T17:05:43.000Z,2
2023-02-19T17:06:59.597Z,1
2023-02-19T17:08:15.000Z,2
2023-02-19T17:09:31.000Z,2
2023-02-19T17:10:48.000Z,1
2023-02-19T17:12:04.000Z,1
2023-02-19T17:13:20.000Z,1
2023-02-19T17:14:35.000Z,1
2023-02-19T17:15:52.000Z,0
2023-02-19T17:17:08.000Z,0
2023-02-19T17:18:24.000Z,0
2023-02-19T17:19:39.000Z,0
2023-02-19T17:20:55.000Z,0
2023-02-19T17:22:11.000Z,0
2023-02-19T17:23:26.000Z,0
2023-02-19T17:24:43.000Z,0
2023-02-19T17:25:58.000Z,0
2023-02-19T17:27:14.000Z,0
2023-02-19T17:28:31.000Z,0
2023-02-19T17:29:47.000Z,0
2023-02-19T17:31:03.000Z,0
2023-02-19T17:32:19.000Z,0
2023-02-19T17:33:36.000Z,0
2023-02-19T17:34:52.000Z,0
2023-02-19T17:36:08.000Z,0
2023-02-19T17:37:25.000Z,0
2023-02-19T17:39:57.000Z,0
2023-02-19T17:41:13.000Z,0
2023-02-19T17:42:29.000Z,0
2023-02-19T17:43:45.000Z,0
2023-02-19T17:45:02.025Z,0
2023-02-19T17:46:18.000Z,0
2023-02-19T17:47:34.000Z,0
2023-02-19T17:48:50.000Z,0
2023-02-19T17:50:06.000Z,0
2023-02-19T17:51:22.460Z,0
2023-02-19T17:52:37.000Z,0
2023-02-19T17:53:52.000Z,0
2023-02-19T17:55:08.000Z,0
2023-02-19T17:56:24.000Z,0
2023-02-19T17:57:40.000Z,0
2023-02-19T17:58:57.000Z,0